createdAt,value
2022-09-28T00:02:51.716Z,3.78
2022-09-28T00:05:54.721Z,3.44
2022-09-28T00:08:59.221Z,3.38
2022-09-28T00:12:03.251Z,3.25
2022-09-28T00:15:06.515Z,3.27
2022-09-28T00:18:09.464Z,3.28
2022-09-28T00:21:15.730Z,3.42
2022-09-28T00:24:26.674Z,3.50
2022-09-28T00:27:31.462Z,3.70
2022-09-28T00:30:34.504Z,4.01
2022-09-28T00:33:37.558Z,4.23
2022-09-28T00:36:46.132Z,4.43
2022-09-28T00:39:50.478Z,4.52
2022-09-28T00:42:53.436Z,4.69
2022-09-28T00:46:06.866Z,4.92
2022-09-28T00:49:16.650Z,5.17
2022-09-28T00:52:28.246Z,5.32
2022-09-28T00:55:39.641Z,5.58
2022-09-28T00:58:48.082Z,5.79
2022-09-28T01:01:51.834Z,5.77
2022-09-28T01:04:57.942Z,5.75
2022-09-28T01:08:03.525Z,5.66
2022-09-28T01:11:07.777Z,5.66
2022-09-28T01:14:14.085Z,5.59
2022-09-28T01:17:27.346Z,5.21
2022-09-28T01:20:43.267Z,5.24
2022-09-28T01:24:11.189Z,5.70
2022-09-28T01:27:27.373Z,6.01
2022-09-28T01:30:38.608Z,6.24
2022-09-28T01:33:55.940Z,6.47
2022-09-28T01:37:05.914Z,6.68
2022-09-28T01:40:12.791Z,6.66
2022-09-28T01:43:25.383Z,6.81
2022-09-28T01:46:45.258Z,6.99
2022-09-28T01:50:02.473Z,7.12
2022-09-28T01:53:13.394Z,7.09
2022-09-28T01:56:36.710Z,7.25
2022-09-28T01:59:45.686Z,7.43
2022-09-28T02:03:13.447Z,7.61
2022-09-28T02:06:39.378Z,8.00
2022-09-28T02:09:49.831Z,7.92
2022-09-28T02:13:01.903Z,8.14
2022-09-28T02:16:10.867Z,8.35
2022-09-28T02:19:24.298Z,8.17
2022-09-28T02:22:35.171Z,8.24
2022-09-28T02:25:52.358Z,8.67
2022-09-28T02:28:57.629Z,8.85
2022-09-28T02:32:01.485Z,8.92
2022-09-28T02:35:05.858Z,9.32
2022-09-28T02:38:12.439Z,9.64
2022-09-28T02:41:43.966Z,9.76
2022-09-28T02:44:58.294Z,10.19
2022-09-28T02:48:43.115Z,11.06
2022-09-28T02:52:25.644Z,11.86
2022-09-28T02:55:37.851Z,13.64
2022-09-28T02:58:57.332Z,16.69
2022-09-28T03:02:19.573Z,19.48
2022-09-28T03:05:30.982Z,21.26
2022-09-28T03:08:58.549Z,21.24
2022-09-28T03:12:13.168Z,21.64
2022-09-28T03:15:26.466Z,22.26
2022-09-28T03:18:33.187Z,22.77
2022-09-28T03:21:37.124Z,23.08
2022-09-28T03:24:40.824Z,23.55
2022-09-28T03:27:45.670Z,23.91
2022-09-28T03:30:51.254Z,24.19
2022-09-28T03:33:56.553Z,24.39
2022-09-28T03:37:00.565Z,24.48
2022-09-28T03:40:06.852Z,24.38
2022-09-28T03:43:10.581Z,24.43
2022-09-28T03:46:15.125Z,24.04
2022-09-28T03:49:23.452Z,23.73
2022-09-28T03:52:27.219Z,23.19
2022-09-28T03:55:31.521Z,21.48
2022-09-28T03:58:35.976Z,21.05
2022-09-28T04:01:39.834Z,20.87
2022-09-28T04:04:44.659Z,20.97
2022-09-28T04:07:48.350Z,19.72
2022-09-28T04:10:52.880Z,19.51
2022-09-28T04:13:56.836Z,20.09
2022-09-28T04:17:01.397Z,20.77
2022-09-28T04:20:07.973Z,19.59
2022-09-28T04:23:35.631Z,19.07
2022-09-28T04:26:39.568Z,19.53
2022-09-28T04:29:45.387Z,18.64
2022-09-28T04:32:50.202Z,18.05
2022-09-28T04:35:54.801Z,17.59
2022-09-28T04:38:58.453Z,17.80
2022-09-28T04:42:04.317Z,17.65
2022-09-28T04:45:09.077Z,18.90
2022-09-28T04:48:18.560Z,19.87
2022-09-28T04:51:44.975Z,19.99
2022-09-28T04:54:49.215Z,20.03
2022-09-28T04:57:52.788Z,19.60
2022-09-28T05:01:05.610Z,19.45
2022-09-28T05:04:44.572Z,19.33
2022-09-28T05:08:08.470Z,18.72
2022-09-28T05:11:14.097Z,17.94
2022-09-28T05:14:18.216Z,17.94
2022-09-28T05:17:21.951Z,18.14
2022-09-28T05:20:42.997Z,18.46
2022-09-28T05:23:48.248Z,19.38
2022-09-28T05:26:52.556Z,19.43
2022-09-28T05:29:56.375Z,19.54
2022-09-28T05:33:06.394Z,19.49
2022-09-28T05:36:27.698Z,19.35
2022-09-28T05:39:31.249Z,19.81
2022-09-28T05:42:35.390Z,19.59
2022-09-28T05:45:39.192Z,19.47
2022-09-28T05:48:43.240Z,18.87
2022-09-28T05:51:47.132Z,18.48
2022-09-28T05:54:51.360Z,18.06
2022-09-28T05:57:59.923Z,18.39
2022-09-28T06:01:03.962Z,18.71
2022-09-28T06:04:09.437Z,18.68
2022-09-28T06:07:13.729Z,18.41
2022-09-28T06:10:17.591Z,18.62
2022-09-28T06:13:21.560Z,19.23
2022-09-28T06:16:27.125Z,19.82
2022-09-28T06:19:31.343Z,20.38
2022-09-28T06:23:01.302Z,20.44
2022-09-28T06:26:05.676Z,19.35
2022-09-28T06:29:09.329Z,19.71
2022-09-28T06:32:14.904Z,19.69
2022-09-28T06:35:23.055Z,19.30
2022-09-28T06:38:27.495Z,18.98
2022-09-28T06:41:31.416Z,18.55
2022-09-28T06:44:39.162Z,18.31
2022-09-28T06:48:08.587Z,18.08
2022-09-28T06:51:16.009Z,17.71
2022-09-28T06:54:42.901Z,17.65
2022-09-28T06:58:12.982Z,17.52
2022-09-28T07:01:16.678Z,17.21
2022-09-28T07:04:35.140Z,16.91
2022-09-28T07:08:02.528Z,16.77
2022-09-28T07:11:27.708Z,16.79
2022-09-28T07:14:48.113Z,16.96
2022-09-28T07:18:02.683Z,17.26
2022-09-28T07:21:15.955Z,17.35
2022-09-28T07:24:25.904Z,17.52
2022-09-28T07:27:32.413Z,17.48
2022-09-28T07:31:07.504Z,17.40
2022-09-28T07:34:32.303Z,17.42
2022-09-28T07:37:42.212Z,17.17
2022-09-28T07:41:04.407Z,17.04
2022-09-28T07:44:08.695Z,16.76
2022-09-28T07:47:14.982Z,16.51
2022-09-28T07:50:37.532Z,16.38
2022-09-28T07:54:01.084Z,16.18
2022-09-28T07:57:19.216Z,15.84
2022-09-28T08:00:34.244Z,15.56
2022-09-28T08:03:39.810Z,15.35
2022-09-28T08:06:45.454Z,15.14
2022-09-28T08:09:50.428Z,15.04
2022-09-28T08:13:06.423Z,14.91
2022-09-28T08:20:11.074Z,14.62
2022-09-28T08:23:15.188Z,14.46
2022-09-28T08:26:19.106Z,14.31
2022-09-28T08:29:23.289Z,14.16
2022-09-28T08:32:26.753Z,14.09
2022-09-28T08:35:58.418Z,14.08
2022-09-28T08:39:20.801Z,13.98
2022-09-28T08:42:44.028Z,13.90
2022-09-28T08:46:23.764Z,13.85
2022-09-28T08:49:51.260Z,13.79
2022-09-28T08:53:54.169Z,13.79
2022-09-28T08:57:25.671Z,13.71
2022-09-28T09:00:44.705Z,13.67
2022-09-28T09:03:50.200Z,13.56
2022-09-28T09:07:18.773Z,13.54
2022-09-28T09:10:53.712Z,13.48
2022-09-28T09:14:29.837Z,13.48
2022-09-28T09:17:43.935Z,13.42
2022-09-28T09:21:10.252Z,13.38
2022-09-28T09:24:52.613Z,13.31
2022-09-28T09:28:17.887Z,13.19
2022-09-28T09:31:39.436Z,12.96
2022-09-28T09:35:23.834Z,12.87
2022-09-28T09:38:47.876Z,12.82
2022-09-28T09:42:12.403Z,12.79
2022-09-28T09:46:06.587Z,12.88
2022-09-28T09:49:52.424Z,12.88
2022-09-28T09:53:02.331Z,12.87
2022-09-28T09:56:31.777Z,12.85
2022-09-28T10:00:14.703Z,12.80
2022-09-28T10:03:33.981Z,12.76
2022-09-28T10:06:57.573Z,12.70
2022-09-28T10:10:03.066Z,12.65
2022-09-28T10:13:36.806Z,12.64
2022-09-28T10:16:53.954Z,12.63
2022-09-28T10:20:20.983Z,12.62
2022-09-28T10:23:38.550Z,12.63
2022-09-28T10:26:47.816Z,12.60
2022-09-28T10:30:16.751Z,12.56
2022-09-28T10:33:33.951Z,12.56
2022-09-28T10:36:55.614Z,12.53
2022-09-28T10:40:00.041Z,12.49
2022-09-28T10:43:27.431Z,12.46
2022-09-28T10:46:36.981Z,12.44
2022-09-28T10:49:50.300Z,12.41
2022-09-28T10:53:12.486Z,12.40
2022-09-28T10:56:40.584Z,12.36
2022-09-28T10:59:49.094Z,12.34
2022-09-28T11:03:04.152Z,12.34
2022-09-28T11:06:09.870Z,12.33
2022-09-28T11:09:33.950Z,12.32
2022-09-28T11:12:46.295Z,12.25
2022-09-28T11:15:50.763Z,12.19
2022-09-28T11:19:22.221Z,12.18
2022-09-28T11:22:42.306Z,12.19
2022-09-28T11:26:05.441Z,12.18
2022-09-28T11:29:35.409Z,12.19
2022-09-28T11:33:05.057Z,12.12
2022-09-28T11:36:14.195Z,12.08
2022-09-28T11:39:23.558Z,12.09
2022-09-28T11:42:43.349Z,12.08
2022-09-28T11:46:04.819Z,12.08
2022-09-28T11:49:36.536Z,12.04
2022-09-28T11:53:02.594Z,11.98
2022-09-28T11:56:20.000Z,11.93
2022-09-28T11:59:58.994Z,11.92
2022-09-28T12:03:16.241Z,11.90
2022-09-28T12:06:25.934Z,11.88
2022-09-28T12:09:54.283Z,11.89
2022-09-28T12:13:06.761Z,11.87
2022-09-28T12:20:20.673Z,11.85
2022-09-28T12:23:35.153Z,11.82
2022-09-28T12:27:10.762Z,11.80
2022-09-28T12:30:28.275Z,11.77
2022-09-28T12:33:32.886Z,11.75
2022-09-28T12:36:42.446Z,11.80
2022-09-28T12:40:23.410Z,11.81
2022-09-28T12:43:40.900Z,11.79
2022-09-28T12:47:06.025Z,11.76
2022-09-28T12:50:53.997Z,11.76
2022-09-28T12:54:04.888Z,11.73
2022-09-28T12:57:38.175Z,11.71
2022-09-28T13:01:15.872Z,11.72
2022-09-28T13:05:07.488Z,11.72
2022-09-28T13:08:42.655Z,11.72
2022-09-28T13:11:55.327Z,11.71
2022-09-28T13:15:17.629Z,11.71
2022-09-28T13:18:39.637Z,11.67
2022-09-28T13:22:41.027Z,11.69
2022-09-28T13:26:15.026Z,11.65
2022-09-28T13:29:20.676Z,11.64
2022-09-28T13:32:26.895Z,11.67
2022-09-28T13:35:29.973Z,11.67
2022-09-28T13:38:48.456Z,11.65
2022-09-28T13:41:54.818Z,11.63
2022-09-28T13:45:12.805Z,11.62
2022-09-28T13:48:43.123Z,11.61
2022-09-28T13:52:07.335Z,11.60
2022-09-28T13:55:25.493Z,11.57
2022-09-28T13:58:39.475Z,11.60
2022-09-28T14:01:56.419Z,11.59
2022-09-28T14:05:28.152Z,11.54
2022-09-28T14:08:35.181Z,11.42
2022-09-28T14:11:43.022Z,11.33
2022-09-28T14:14:51.056Z,11.31
2022-09-28T14:18:06.269Z,11.30
2022-09-28T14:21:33.464Z,11.30
2022-09-28T14:24:54.782Z,11.26
2022-09-28T14:28:07.215Z,11.23
2022-09-28T14:31:22.925Z,11.22
2022-09-28T14:34:27.545Z,11.21
2022-09-28T14:37:56.113Z,11.20
2022-09-28T14:41:11.458Z,11.32
2022-09-28T14:44:19.966Z,11.37
2022-09-28T14:47:35.780Z,11.34
2022-09-28T14:50:39.891Z,11.31
2022-09-28T14:53:43.614Z,11.23
2022-09-28T14:56:49.392Z,11.13
2022-09-28T14:59:54.958Z,11.08
2022-09-28T15:03:03.043Z,11.13
2022-09-28T15:06:06.401Z,11.11
2022-09-28T15:09:28.059Z,11.18
2022-09-28T15:12:32.512Z,11.18
2022-09-28T15:15:40.660Z,11.18
2022-09-28T15:18:59.808Z,11.14
2022-09-28T15:22:03.196Z,11.11
2022-09-28T15:25:15.916Z,11.14
2022-09-28T15:28:24.555Z,11.12
2022-09-28T15:31:31.795Z,11.15
2022-09-28T15:34:52.341Z,11.19
2022-09-28T15:37:56.805Z,11.20
2022-09-28T15:41:05.132Z,11.25
2022-09-28T15:44:39.660Z,11.30
2022-09-28T15:47:45.905Z,11.24
2022-09-28T15:51:00.082Z,11.23
2022-09-28T15:54:12.002Z,11.16
2022-09-28T15:57:48.563Z,11.14
2022-09-28T16:01:12.597Z,10.76
2022-09-28T16:04:38.272Z,10.68
2022-09-28T16:07:42.212Z,10.43
2022-09-28T16:10:57.581Z,10.46
2022-09-28T16:14:09.377Z,10.53
2022-09-28T16:17:19.977Z,10.51
2022-09-28T16:20:32.323Z,10.55
2022-09-28T16:23:37.427Z,10.41
2022-09-28T16:26:40.980Z,10.46
2022-09-28T16:29:45.589Z,10.49
2022-09-28T16:32:52.629Z,10.54
2022-09-28T16:35:55.985Z,10.40
2022-09-28T16:38:59.498Z,10.32
2022-09-28T16:42:12.283Z,10.43
2022-09-28T16:45:21.012Z,10.46
2022-09-28T16:48:30.316Z,10.50
2022-09-28T16:51:34.169Z,10.30
2022-09-28T16:54:56.248Z,9.96
2022-09-28T16:57:59.426Z,9.77
2022-09-28T17:01:03.361Z,9.53
2022-09-28T17:04:07.994Z,9.47
2022-09-28T17:07:15.283Z,9.41
2022-09-28T17:10:27.038Z,9.24
2022-09-28T17:13:34.167Z,9.09
2022-09-28T17:20:26.218Z,8.91
2022-09-28T17:23:29.762Z,8.88
2022-09-28T17:26:35.522Z,8.87
2022-09-28T17:29:38.959Z,8.87
2022-09-28T17:32:45.897Z,8.72
2022-09-28T17:35:52.227Z,8.69
2022-09-28T17:38:56.109Z,8.71
2022-09-28T17:41:59.663Z,8.71
2022-09-28T17:45:03.934Z,8.68
2022-09-28T17:48:18.383Z,8.58
2022-09-28T17:51:23.345Z,8.41
2022-09-28T17:54:26.997Z,8.36
2022-09-28T17:57:30.870Z,8.37
2022-09-28T18:00:34.600Z,8.26
2022-09-28T18:03:39.231Z,8.02
2022-09-28T18:06:43.759Z,8.01
2022-09-28T18:09:47.650Z,8.02
2022-09-28T18:12:51.600Z,8.06
2022-09-28T18:15:56.914Z,8.08
2022-09-28T18:19:00.752Z,8.01
2022-09-28T18:22:03.976Z,7.98
2022-09-28T18:25:08.148Z,7.90
2022-09-28T18:28:13.266Z,8.00
2022-09-28T18:31:19.481Z,8.10
2022-09-28T18:34:23.512Z,8.11
2022-09-28T18:37:26.707Z,8.09
2022-09-28T18:40:30.540Z,8.10
2022-09-28T18:43:36.330Z,8.23
2022-09-28T18:46:41.735Z,8.20
2022-09-28T18:49:46.863Z,8.25
2022-09-28T18:52:50.768Z,8.36
2022-09-28T18:55:53.837Z,8.45
2022-09-28T18:59:00.559Z,8.51
2022-09-28T19:02:04.187Z,8.43
2022-09-28T19:05:07.782Z,8.39
2022-09-28T19:08:11.517Z,8.26
2022-09-28T19:11:16.721Z,8.25
2022-09-28T19:14:20.124Z,8.29
2022-09-28T19:17:23.610Z,8.17
2022-09-28T19:20:27.471Z,8.06
2022-09-28T19:23:30.297Z,8.11
2022-09-28T19:26:33.877Z,7.97
2022-09-28T19:29:37.044Z,7.96
2022-09-28T19:32:39.893Z,7.92
2022-09-28T19:35:43.035Z,7.92
2022-09-28T19:38:46.810Z,7.93
2022-09-28T19:41:53.251Z,8.05
2022-09-28T19:44:56.896Z,8.00
2022-09-28T19:48:02.420Z,8.02
2022-09-28T19:51:07.781Z,8.12
2022-09-28T19:54:12.207Z,8.01
2022-09-28T19:57:16.331Z,7.94
2022-09-28T20:00:19.949Z,7.89
2022-09-28T20:03:26.091Z,7.85
2022-09-28T20:06:29.826Z,7.94
2022-09-28T20:09:34.170Z,7.96
2022-09-28T20:12:37.575Z,7.88
2022-09-28T20:15:42.389Z,7.90
2022-09-28T20:18:50.773Z,7.86
2022-09-28T20:21:53.965Z,7.76
2022-09-28T20:24:56.769Z,7.78
2022-09-28T20:27:59.873Z,7.89
2022-09-28T20:31:13.342Z,7.98
2022-09-28T20:34:17.311Z,8.03
2022-09-28T20:37:20.465Z,7.93
2022-09-28T20:40:23.757Z,7.86
2022-09-28T20:43:28.392Z,7.77
2022-09-28T20:46:31.633Z,7.79
2022-09-28T20:49:35.212Z,7.81
2022-09-28T20:52:39.092Z,7.69
2022-09-28T20:55:42.128Z,7.69
2022-09-28T20:58:45.994Z,7.69
2022-09-28T21:01:49.143Z,7.61
2022-09-28T21:04:52.052Z,7.57
2022-09-28T21:07:55.589Z,7.51
2022-09-28T21:10:59.882Z,7.35
2022-09-28T21:14:06.223Z,7.39
2022-09-28T21:17:11.740Z,7.41
2022-09-28T21:20:15.350Z,7.26
2022-09-28T21:23:24.524Z,7.24
2022-09-28T21:26:30.544Z,7.24
2022-09-28T21:29:34.433Z,7.33
2022-09-28T21:32:38.882Z,7.40
2022-09-28T21:35:42.649Z,7.47
2022-09-28T21:38:46.151Z,7.53
2022-09-28T21:41:50.298Z,7.57
2022-09-28T21:44:57.418Z,7.60
2022-09-28T21:48:03.397Z,7.47
2022-09-28T21:51:09.664Z,7.48
2022-09-28T21:54:13.116Z,7.37
2022-09-28T21:57:18.753Z,7.30
2022-09-28T22:00:26.032Z,7.25
2022-09-28T22:03:31.351Z,7.27
2022-09-28T22:06:34.907Z,7.27
2022-09-28T22:09:37.856Z,7.40
2022-09-28T22:12:41.310Z,7.35
2022-09-28T22:15:44.834Z,7.37
2022-09-28T22:18:48.925Z,7.41
2022-09-28T22:21:51.819Z,7.39
2022-09-28T22:24:55.912Z,7.32
2022-09-28T22:27:58.791Z,7.33
2022-09-28T22:31:02.558Z,7.32
2022-09-28T22:34:06.329Z,7.25
2022-09-28T22:37:10.014Z,7.31
2022-09-28T22:40:13.566Z,7.36
2022-09-28T22:43:17.259Z,7.34
2022-09-28T22:46:23.414Z,7.45
2022-09-28T22:49:26.853Z,7.47
2022-09-28T22:52:30.039Z,7.39
2022-09-28T22:55:35.848Z,7.25
2022-09-28T22:58:39.816Z,7.30
2022-09-28T23:01:42.675Z,7.23
2022-09-28T23:04:45.839Z,7.27
2022-09-28T23:07:48.584Z,7.23
2022-09-28T23:10:52.005Z,7.21
2022-09-28T23:13:58.084Z,7.20
2022-09-28T23:17:00.893Z,7.18
2022-09-28T23:20:04.680Z,7.17
2022-09-28T23:23:08.026Z,7.18
2022-09-28T23:26:14.227Z,7.19
2022-09-28T23:29:17.621Z,7.23
2022-09-28T23:32:21.181Z,7.23
2022-09-28T23:35:24.600Z,7.34
2022-09-28T23:38:28.364Z,7.38
2022-09-28T23:41:31.893Z,7.33
2022-09-28T23:44:35.640Z,7.41
2022-09-28T23:47:39.335Z,7.41
2022-09-28T23:50:44.108Z,7.59
2022-09-28T23:53:47.301Z,7.72
2022-09-28T23:56:51.514Z,7.75
2022-09-28T23:59:54.326Z,7.85
